KBKT/BKT METAR and TAF weather

Enter ICAO airport designator
Station Type Date Time Source
KBKT METAR 2023/02/06 00:15 UTC NOAA

KBKT 060015Z AUTO 19005KT 10SM SCT013 06/03 A3010 RMK AO1 T00620025


Station Type Date Time Source
KBKT Decoded METAR 2023/02/06 00:15 UTC NOAA

Ft. Pickett / Blackstone, VA, United States (KBKT) 37-05N 077-57W
Feb 05, 2023 - 07:15 PM EST / 2023.02.06 0015 UTC
Wind: from the S (190 degrees) at 6 MPH (5 KT):0
Visibility: 10 mile(s):0
Sky conditions: partly cloudy
Temperature: 43.2 F (6.2 C)
Dew Point: 36.5 F (2.5 C)
Relative Humidity: 77%
Pressure (altimeter): 30.1 in. Hg (1019 hPa)
ob: KBKT 060015Z AUTO 19005KT 10SM SCT013 06/03 A3010 RMK AO1 T00620025
cycle: 0

Station Type Date Time Source
KBKT TAF UTC NOAA

Error!

Example: see airport list